Time;durP1;ratioP1;P1;durP2;ratioP2;P2;SDS_P1;SDS_P2;PMS_P1;PMS_P2;Temp;Humidity;BMP_temperature;BMP_pressure;BME280_temperature;BME280_humidity;BME280_pressure;Samples;Min_cycle;Max_cycle;Signal;HPM_P1;HPM_P2
2022/09/04 00:04:37;;;;;;;3.10;1.70;;;16.40;92.90;;;;;;6123116;23;20018;-90
2022/09/04 00:07:09;;;;;;;6.32;2.03;;;16.40;92.90;;;;;;6133000;23;20009;-87
2022/09/04 00:10:08;;;;;;;6.10;2.28;;;16.40;92.90;;;;;;6089954;23;20017;-89
2022/09/04 00:12:44;;;;;;;3.42;2.00;;;16.30;93.00;;;;;;6078514;23;20014;-88
2022/09/04 00:15:16;;;;;;;3.65;1.90;;;16.30;93.00;;;;;;6080294;23;20104;-89
2022/09/04 00:18:18;;;;;;;6.72;1.90;;;16.30;93.00;;;;;;6080618;23;20018;-87
2022/09/04 00:20:57;;;;;;;9.13;1.98;;;16.30;93.00;;;;;;6077079;23;20026;-88
2022/09/04 00:23:50;;;;;;;6.03;2.10;;;16.30;93.00;;;;;;6128224;23;20029;-89
2022/09/04 00:26:22;;;;;;;6.63;2.22;;;16.20;93.00;;;;;;6124136;23;20021;-90
2022/09/04 00:28:57;;;;;;;6.70;2.05;;;16.20;92.90;;;;;;6127769;23;20026;-90
2022/09/04 00:31:32;;;;;;;4.88;2.40;;;16.20;92.90;;;;;;6124875;23;20119;-89
2022/09/04 01:35:53;;;;;;;5.00;1.73;;;16.00;93.20;;;;;;6152128;23;20029;-90
2022/09/04 01:38:32;;;;;;;7.03;1.50;;;16.10;93.00;;;;;;6108241;23;20060;-90
2022/09/04 01:41:35;;;;;;;5.38;1.70;;;16.00;92.90;;;;;;6109426;23;20009;-91
2022/09/04 01:44:05;;;;;;;5.40;1.75;;;16.00;92.90;;;;;;6134582;23;20032;-88
2022/09/04 01:46:52;;;;;;;3.55;1.60;;;16.00;92.90;;;;;;6136219;23;20386;-91
2022/09/04 02:05:07;;;;;;;2.67;1.75;;;15.80;93.30;;;;;;6139922;22;20043;-87
2022/09/04 02:07:44;;;;;;;3.22;1.80;;;15.80;93.40;;;;;;6150713;23;20024;-87
2022/09/04 02:10:22;;;;;;;6.70;1.80;;;15.70;93.40;;;;;;6151663;23;20035;-87
2022/09/04 02:13:02;;;;;;;3.38;2.30;;;15.70;93.50;;;;;;6151309;23;20024;-88
2022/09/04 02:15:34;;;;;;;4.25;2.00;;;15.70;93.60;;;;;;6126526;23;20016;-86
2022/09/04 02:18:12;;;;;;;4.22;1.75;;;15.60;93.50;;;;;;6148859;23;20016;-87
2022/09/04 03:19:39;;;;;;;5.78;2.35;;;15.20;94.80;;;;;;6134410;23;20009;-91
2022/09/04 03:22:31;;;;;;;6.28;2.40;;;15.20;95.00;;;;;;6075963;23;20033;-90
2022/09/04 03:25:35;;;;;;;4.22;2.05;;;15.20;94.90;;;;;;6052721;23;20094;-92
2022/09/04 03:28:01;;;;;;;5.63;2.72;;;15.20;94.90;;;;;;5933054;23;20516;-90
2022/09/04 03:30:30;;;;;;;5.28;1.98;;;15.10;95.10;;;;;;6070810;23;20026;-91
2022/09/04 03:33:04;;;;;;;5.72;2.17;;;15.10;95.00;;;;;;6069442;23;20030;-91
2022/09/04 04:19:48;;;;;;;4.80;2.50;;;14.90;96.10;;;;;;6105515;23;20025;-89
2022/09/04 04:22:33;;;;;;;4.38;2.30;;;14.90;96.20;;;;;;6099709;23;20027;-90
2022/09/04 04:25:28;;;;;;;3.85;2.47;;;14.90;96.40;;;;;;6123772;23;20057;-90
2022/09/04 04:28:22;;;;;;;5.35;2.58;;;14.90;96.60;;;;;;6103397;23;20029;-90
2022/09/04 04:30:51;;;;;;;6.07;2.80;;;14.90;96.60;;;;;;6101797;23;20018;-87
2022/09/04 04:33:50;;;;;;;4.18;2.45;;;14.90;96.50;;;;;;6071184;23;20401;-86
2022/09/04 06:35:35;;;;;;;6.03;3.30;;;16.20;98.90;;;;;;6145469;23;20017;-90
2022/09/04 06:38:28;;;;;;;4.68;2.88;;;16.40;98.80;;;;;;6106937;23;20014;-87
2022/09/04 06:41:40;;;;;;;4.10;2.70;;;16.50;98.80;;;;;;6131748;23;20375;-91
2022/09/04 06:44:35;;;;;;;9.32;3.15;;;16.70;98.40;;;;;;6131879;23;20032;-89
2022/09/04 06:47:23;;;;;;;4.22;2.45;;;16.80;98.10;;;;;;6159178;23;20017;-91
2022/09/04 08:28:25;;;;;;;3.97;2.90;;;20.50;94.50;;;;;;6142738;23;20406;-89
2022/09/04 08:31:27;;;;;;;3.80;2.70;;;20.50;94.40;;;;;;6099479;23;20021;-89
2022/09/04 08:34:22;;;;;;;7.07;3.10;;;20.60;94.40;;;;;;6105015;23;20013;-89
2022/09/04 10:50:28;;;;;;;4.43;2.08;;;24.70;91.80;;;;;;6134766;23;20024;31
2022/09/04 10:53:21;;;;;;;4.32;2.17;;;24.80;91.40;;;;;;6074226;23;20017;-94
2022/09/04 10:56:08;;;;;;;6.18;2.35;;;24.80;91.50;;;;;;6123825;23;20036;-90
2022/09/04 10:58:34;;;;;;;3.58;2.28;;;25.00;91.40;;;;;;6061037;23;20025;-88
2022/09/04 11:01:21;;;;;;;6.20;1.92;;;25.10;91.30;;;;;;6094856;23;20098;-88
2022/09/04 11:03:53;;;;;;;3.95;2.10;;;25.10;91.30;;;;;;6125107;23;20030;-90
2022/09/04 11:22:33;;;;;;;4.40;2.15;;;25.40;90.30;;;;;;6135124;23;20017;-85
2022/09/04 11:25:23;;;;;;;4.63;2.08;;;25.40;90.60;;;;;;6003703;23;20026;-86
2022/09/04 11:28:18;;;;;;;9.85;2.30;;;25.50;91.00;;;;;;6007352;23;20041;-86
2022/09/04 11:31:03;;;;;;;4.43;1.92;;;25.60;90.30;;;;;;6107630;23;20013;-86
2022/09/04 11:34:00;;;;;;;5.00;1.88;;;25.60;90.40;;;;;;6124249;23;20012;-86
2022/09/04 12:38:53;;;;;;;5.25;1.98;;;26.30;90.40;;;;;;6132601;23;20044;-89
2022/09/04 12:41:48;;;;;;;3.13;1.63;;;26.30;89.80;;;;;;6115041;23;20229;-89
2022/09/04 12:44:25;;;;;;;2.70;1.80;;;26.30;90.00;;;;;;6091513;23;20028;-89
2022/09/04 12:46:57;;;;;;;4.97;1.80;;;26.30;89.80;;;;;;6113780;23;20446;-90
2022/09/04 12:49:24;;;;;;;4.03;1.70;;;26.30;89.10;;;;;;6112319;23;20029;-91
2022/09/04 12:52:07;;;;;;;3.38;1.92;;;26.30;89.40;;;;;;6114448;23;20470;-89
2022/09/04 12:54:50;;;;;;;2.83;1.80;;;26.30;90.00;;;;;;6138233;23;20026;-90
2022/09/04 12:57:30;;;;;;;6.38;1.67;;;26.40;90.10;;;;;;6088823;23;20014;-92
2022/09/04 13:00:11;;;;;;;3.00;1.90;;;26.40;89.60;;;;;;6110605;23;20043;-91
2022/09/04 13:03:05;;;;;;;3.75;2.17;;;26.50;90.10;;;;;;6106946;23;20013;-91
2022/09/04 13:05:47;;;;;;;2.83;1.73;;;26.50;88.80;;;;;;6106368;23;20016;-90
2022/09/04 13:08:22;;;;;;;3.00;1.70;;;26.40;89.30;;;;;;6132258;23;20120;-91
2022/09/04 13:11:09;;;;;;;3.25;2.03;;;26.50;89.70;;;;;;6131582;23;20097;-91
2022/09/04 13:13:44;;;;;;;3.70;2.10;;;26.40;89.30;;;;;;6071923;23;20114;-91
2022/09/04 13:16:44;;;;;;;3.05;1.70;;;26.40;89.30;;;;;;6084035;23;20100;-91
2022/09/04 13:19:34;;;;;;;3.08;1.85;;;26.40;89.50;;;;;;6107844;23;20060;-90
2022/09/04 13:24:43;;;;;;;3.90;1.83;;;26.60;89.00;;;;;;6121455;23;20018;-90
2022/09/04 13:27:31;;;;;;;2.95;1.90;;;26.60;89.20;;;;;;6100177;23;20018;-91
2022/09/04 13:30:23;;;;;;;4.80;1.80;;;26.60;88.10;;;;;;6124482;23;20081;-90
2022/09/04 13:33:10;;;;;;;3.35;1.60;;;26.50;88.60;;;;;;6081139;23;20089;-90
2022/09/04 14:37:22;;;;;;;3.22;2.05;;;26.80;88.60;;;;;;6143824;23;20409;-90
2022/09/04 14:40:15;;;;;;;3.78;1.92;;;26.80;87.70;;;;;;6095639;23;20073;-88
2022/09/04 14:43:02;;;;;;;3.00;1.90;;;26.80;87.50;;;;;;6153685;23;20030;-91
2022/09/04 14:46:03;;;;;;;4.45;2.05;;;26.80;88.40;;;;;;6129606;23;20021;-92
2022/09/04 14:48:32;;;;;;;6.00;2.20;;;26.80;88.10;;;;;;6127076;23;20521;-90
2022/09/04 16:37:10;;;;;;;3.50;2.80;;;25.80;90.00;;;;;;6150447;23;20029;-88
2022/09/04 16:39:59;;;;;;;6.07;2.80;;;25.80;90.20;;;;;;6063433;23;20015;-88
2022/09/04 16:42:37;;;;;;;5.10;2.80;;;25.80;90.30;;;;;;5985529;23;20026;-88
2022/09/04 16:45:36;;;;;;;3.00;2.33;;;25.80;90.60;;;;;;6090542;23;20041;-87
2022/09/04 16:48:19;;;;;;;4.75;2.20;;;25.80;90.60;;;;;;6066057;23;20054;-86
2022/09/04 16:51:04;;;;;;;4.65;2.78;;;25.80;90.60;;;;;;6091310;23;20040;-87
2022/09/04 17:15:24;;;;;;;4.53;2.33;;;25.50;91.00;;;;;;6139074;23;20029;-89
2022/09/04 17:17:53;;;;;;;4.95;2.22;;;25.40;91.70;;;;;;6121397;23;20017;-90
2022/09/04 17:20:24;;;;;;;4.65;2.20;;;25.40;92.00;;;;;;6109927;23;20022;-90
2022/09/04 18:36:53;;;;;;;5.85;2.10;;;23.00;92.50;;;;;;6113281;23;20025;-84
2022/09/04 18:39:59;;;;;;;10.00;2.67;;;22.90;92.50;;;;;;6110132;23;20022;-88
2022/09/04 18:42:44;;;;;;;5.35;2.88;;;22.90;92.80;;;;;;6137454;23;20153;-89
2022/09/04 18:45:37;;;;;;;5.50;2.80;;;22.90;92.40;;;;;;6138701;23;20021;-88
2022/09/04 18:48:05;;;;;;;5.80;2.40;;;22.80;92.50;;;;;;6137319;23;20073;-89
2022/09/04 18:50:37;;;;;;;6.63;2.45;;;22.80;92.50;;;;;;6117883;23;20013;-89
2022/09/04 18:58:14;;;;;;;7.45;2.20;;;22.70;92.70;;;;;;6150925;23;20029;-85
2022/09/04 19:00:42;;;;;;;3.70;2.28;;;22.60;92.80;;;;;;6128267;23;20009;-84
2022/09/04 19:03:25;;;;;;;3.95;2.45;;;22.60;92.70;;;;;;6124983;23;20019;-84
2022/09/04 19:05:56;;;;;;;5.50;2.50;;;22.50;92.60;;;;;;6128842;23;20009;-85
2022/09/04 21:39:38;;;;;;;5.43;2.65;;;20.80;94.40;;;;;;6161676;22;20046;-86
2022/09/04 21:42:22;;;;;;;3.88;2.67;;;20.70;94.50;;;;;;6180651;23;20470;-87
2022/09/04 21:45:17;;;;;;;3.80;2.78;;;20.70;94.50;;;;;;6155547;23;20496;-87
2022/09/04 21:48:11;;;;;;;5.38;3.10;;;20.60;94.80;;;;;;6104052;23;20525;-87
2022/09/04 21:50:42;;;;;;;5.00;2.78;;;20.60;94.70;;;;;;6125509;23;20343;-87
2022/09/04 21:53:26;;;;;;;5.20;2.70;;;20.60;94.70;;;;;;6109254;23;20050;-90
2022/09/04 21:56:10;;;;;;;3.95;2.40;;;20.60;94.80;;;;;;6099980;23;20022;-90
2022/09/04 21:59:05;;;;;;;5.97;2.30;;;20.50;94.80;;;;;;6102491;23;20018;-90
2022/09/04 22:02:09;;;;;;;5.72;2.35;;;20.50;94.70;;;;;;6129515;23;20017;-89
2022/09/04 22:05:17;;;;;;;5.18;2.47;;;20.40;94.90;;;;;;6071224;23;20025;-89
2022/09/04 23:10:07;;;;;;;3.97;2.53;;;19.70;96.10;;;;;;6176701;23;20017;-86
2022/09/04 23:13:04;;;;;;;5.28;2.60;;;19.70;96.50;;;;;;6135621;23;20017;-85
2022/09/04 23:16:08;;;;;;;6.80;2.80;;;19.60;96.50;;;;;;6159724;23;20024;-85
2022/09/04 23:19:12;;;;;;;9.73;2.88;;;19.60;96.60;;;;;;6135296;23;20104;-85
2022/09/04 23:22:00;;;;;;;7.57;2.88;;;19.60;96.70;;;;;;6134790;23;20086;-85
2022/09/04 23:53:06;;;;;;;6.57;3.22;;;19.30;97.30;;;;;;6144238;23;20033;-82
2022/09/04 23:55:38;;;;;;;6.30;3.58;;;19.20;97.40;;;;;;6157789;23;20017;-82
